sensor_id;sensor_type;location;lat;lon;timestamp;temperature;humidity
36280;DHT22;22317;47.936;12.742;2023-06-24T00:02:02;13.50;60.20
36280;DHT22;22317;47.936;12.742;2023-06-24T00:04:28;13.50;60.10
36280;DHT22;22317;47.936;12.742;2023-06-24T00:06:54;13.40;60.40
36280;DHT22;22317;47.936;12.742;2023-06-24T00:09:24;13.40;60.60
36280;DHT22;22317;47.936;12.742;2023-06-24T00:11:50;13.40;61.30
36280;DHT22;22317;47.936;12.742;2023-06-24T00:14:16;13.30;60.50
36280;DHT22;22317;47.936;12.742;2023-06-24T00:16:42;13.30;60.60
36280;DHT22;22317;47.936;12.742;2023-06-24T00:19:08;13.30;60.80
36280;DHT22;22317;47.936;12.742;2023-06-24T00:21:34;13.20;60.90
36280;DHT22;22317;47.936;12.742;2023-06-24T00:24:03;13.20;61.10
36280;DHT22;22317;47.936;12.742;2023-06-24T00:26:32;13.10;61.20
36280;DHT22;22317;47.936;12.742;2023-06-24T00:28:58;13.10;61.30
36280;DHT22;22317;47.936;12.742;2023-06-24T00:31:24;13.10;61.60
36280;DHT22;22317;47.936;12.742;2023-06-24T00:33:50;13.10;61.70
36280;DHT22;22317;47.936;12.742;2023-06-24T00:36:17;13.00;61.60
36280;DHT22;22317;47.936;12.742;2023-06-24T00:38:43;13.00;61.70
36280;DHT22;22317;47.936;12.742;2023-06-24T00:41:10;12.90;61.80
36280;DHT22;22317;47.936;12.742;2023-06-24T00:43:37;12.90;61.90
36280;DHT22;22317;47.936;12.742;2023-06-24T00:46:04;12.90;62.20
36280;DHT22;22317;47.936;12.742;2023-06-24T00:48:32;12.90;62.40
36280;DHT22;22317;47.936;12.742;2023-06-24T00:50:57;12.90;62.50
36280;DHT22;22317;47.936;12.742;2023-06-24T00:53:26;12.90;62.50
36280;DHT22;22317;47.936;12.742;2023-06-24T00:55:53;12.90;62.50
36280;DHT22;22317;47.936;12.742;2023-06-24T00:58:20;12.90;62.60
36280;DHT22;22317;47.936;12.742;2023-06-24T01:00:47;12.90;62.60
36280;DHT22;22317;47.936;12.742;2023-06-24T01:03:14;12.90;62.70
36280;DHT22;22317;47.936;12.742;2023-06-24T01:05:41;13.00;62.80
36280;DHT22;22317;47.936;12.742;2023-06-24T01:08:07;13.00;62.90
36280;DHT22;22317;47.936;12.742;2023-06-24T01:10:33;13.00;62.90
36280;DHT22;22317;47.936;12.742;2023-06-24T01:12:59;13.00;63.00
36280;DHT22;22317;47.936;12.742;2023-06-24T01:15:25;13.00;63.00
36280;DHT22;22317;47.936;12.742;2023-06-24T01:34:28;13.30;63.00
36280;DHT22;22317;47.936;12.742;2023-06-24T01:37:10;13.30;63.10
36280;DHT22;22317;47.936;12.742;2023-06-24T01:42:28;13.30;63.20
36280;DHT22;22317;47.936;12.742;2023-06-24T01:44:57;13.30;62.90
36280;DHT22;22317;47.936;12.742;2023-06-24T01:47:25;13.30;62.90
36280;DHT22;22317;47.936;12.742;2023-06-24T01:49:53;13.40;63.00
36280;DHT22;22317;47.936;12.742;2023-06-24T01:52:23;13.40;63.10
36280;DHT22;22317;47.936;12.742;2023-06-24T01:54:53;13.40;63.20
36280;DHT22;22317;47.936;12.742;2023-06-24T01:57:22;13.40;63.20
36280;DHT22;22317;47.936;12.742;2023-06-24T01:59:48;13.50;63.50
36280;DHT22;22317;47.936;12.742;2023-06-24T02:02:15;13.50;63.50
36280;DHT22;22317;47.936;12.742;2023-06-24T02:04:45;13.60;63.50
36280;DHT22;22317;47.936;12.742;2023-06-24T02:07:12;13.70;63.50
36280;DHT22;22317;47.936;12.742;2023-06-24T02:09:40;13.70;63.20
36280;DHT22;22317;47.936;12.742;2023-06-24T02:12:08;13.80;63.00
36280;DHT22;22317;47.936;12.742;2023-06-24T02:14:35;13.70;62.60
36280;DHT22;22317;47.936;12.742;2023-06-24T02:17:07;13.70;62.60
36280;DHT22;22317;47.936;12.742;2023-06-24T02:19:35;13.70;63.00
36280;DHT22;22317;47.936;12.742;2023-06-24T02:22:01;13.70;63.20
36280;DHT22;22317;47.936;12.742;2023-06-24T02:24:28;13.80;63.10
36280;DHT22;22317;47.936;12.742;2023-06-24T02:26:57;13.80;63.00
36280;DHT22;22317;47.936;12.742;2023-06-24T02:29:26;13.80;62.90
36280;DHT22;22317;47.936;12.742;2023-06-24T02:31:53;13.80;63.00
36280;DHT22;22317;47.936;12.742;2023-06-24T02:34:19;13.80;63.00
36280;DHT22;22317;47.936;12.742;2023-06-24T02:36:45;13.90;63.10
36280;DHT22;22317;47.936;12.742;2023-06-24T02:39:11;13.90;63.00
36280;DHT22;22317;47.936;12.742;2023-06-24T02:41:37;13.90;63.10
36280;DHT22;22317;47.936;12.742;2023-06-24T02:44:03;13.90;63.00
36280;DHT22;22317;47.936;12.742;2023-06-24T02:46:29;13.90;63.00
36280;DHT22;22317;47.936;12.742;2023-06-24T02:48:59;13.90;63.00
36280;DHT22;22317;47.936;12.742;2023-06-24T02:51:26;13.90;63.00
36280;DHT22;22317;47.936;12.742;2023-06-24T02:53:52;13.90;63.00
36280;DHT22;22317;47.936;12.742;2023-06-24T02:56:25;13.90;62.90
36280;DHT22;22317;47.936;12.742;2023-06-24T02:58:52;13.80;63.10
36280;DHT22;22317;47.936;12.742;2023-06-24T03:01:22;13.90;63.90
36280;DHT22;22317;47.936;12.742;2023-06-24T03:03:53;13.80;62.90
36280;DHT22;22317;47.936;12.742;2023-06-24T03:06:21;13.80;62.90
36280;DHT22;22317;47.936;12.742;2023-06-24T03:08:48;13.80;62.90
36280;DHT22;22317;47.936;12.742;2023-06-24T03:11:16;13.70;62.80
36280;DHT22;22317;47.936;12.742;2023-06-24T03:13:43;13.70;62.80
36280;DHT22;22317;47.936;12.742;2023-06-24T03:16:19;13.70;62.80
36280;DHT22;22317;47.936;12.742;2023-06-24T03:18:52;13.60;62.80
36280;DHT22;22317;47.936;12.742;2023-06-24T03:21:18;13.50;62.80
36280;DHT22;22317;47.936;12.742;2023-06-24T03:23:44;13.50;62.90
36280;DHT22;22317;47.936;12.742;2023-06-24T03:26:12;13.50;62.90
36280;DHT22;22317;47.936;12.742;2023-06-24T03:28:38;13.50;62.90
36280;DHT22;22317;47.936;12.742;2023-06-24T03:31:10;13.50;63.00
36280;DHT22;22317;47.936;12.742;2023-06-24T03:33:37;13.50;63.00
36280;DHT22;22317;47.936;12.742;2023-06-24T03:36:04;13.50;63.00
36280;DHT22;22317;47.936;12.742;2023-06-24T03:38:32;13.50;62.90
36280;DHT22;22317;47.936;12.742;2023-06-24T03:40:58;13.40;62.90
36280;DHT22;22317;47.936;12.742;2023-06-24T03:43:24;13.40;62.90
36280;DHT22;22317;47.936;12.742;2023-06-24T03:45:50;13.40;63.00
36280;DHT22;22317;47.936;12.742;2023-06-24T03:48:16;13.40;63.00
36280;DHT22;22317;47.936;12.742;2023-06-24T03:50:42;13.40;63.00
36280;DHT22;22317;47.936;12.742;2023-06-24T03:53:07;13.40;63.00
36280;DHT22;22317;47.936;12.742;2023-06-24T03:55:34;13.40;63.00
36280;DHT22;22317;47.936;12.742;2023-06-24T03:57:59;13.40;63.00
36280;DHT22;22317;47.936;12.742;2023-06-24T04:00:26;13.40;63.10
36280;DHT22;22317;47.936;12.742;2023-06-24T04:02:52;13.40;63.10
36280;DHT22;22317;47.936;12.742;2023-06-24T04:05:19;13.50;63.10
36280;DHT22;22317;47.936;12.742;2023-06-24T04:07:45;13.50;63.00
36280;DHT22;22317;47.936;12.742;2023-06-24T04:10:13;13.50;62.90
36280;DHT22;22317;47.936;12.742;2023-06-24T04:12:39;13.50;62.90
36280;DHT22;22317;47.936;12.742;2023-06-24T04:15:05;13.50;62.80
36280;DHT22;22317;47.936;12.742;2023-06-24T04:17:32;13.60;62.80
36280;DHT22;22317;47.936;12.742;2023-06-24T04:19:59;13.50;62.60
36280;DHT22;22317;47.936;12.742;2023-06-24T04:22:25;13.60;62.60
36280;DHT22;22317;47.936;12.742;2023-06-24T04:24:56;13.50;62.50
36280;DHT22;22317;47.936;12.742;2023-06-24T04:27:23;13.50;62.50
36280;DHT22;22317;47.936;12.742;2023-06-24T04:29:49;13.50;62.40
36280;DHT22;22317;47.936;12.742;2023-06-24T04:32:14;13.50;62.40
36280;DHT22;22317;47.936;12.742;2023-06-24T04:34:40;13.50;62.60
36280;DHT22;22317;47.936;12.742;2023-06-24T04:37:06;13.50;62.60
36280;DHT22;22317;47.936;12.742;2023-06-24T04:39:32;13.60;62.60
36280;DHT22;22317;47.936;12.742;2023-06-24T04:41:58;13.60;62.50
36280;DHT22;22317;47.936;12.742;2023-06-24T04:44:24;13.60;62.40
36280;DHT22;22317;47.936;12.742;2023-06-24T04:46:49;13.60;62.40
36280;DHT22;22317;47.936;12.742;2023-06-24T04:49:17;13.60;62.30
36280;DHT22;22317;47.936;12.742;2023-06-24T04:51:43;13.70;62.20
36280;DHT22;22317;47.936;12.742;2023-06-24T04:54:09;13.70;62.10
36280;DHT22;22317;47.936;12.742;2023-06-24T04:56:34;13.70;62.00
36280;DHT22;22317;47.936;12.742;2023-06-24T04:59:01;13.80;62.10
36280;DHT22;22317;47.936;12.742;2023-06-24T05:01:26;13.80;62.00
36280;DHT22;22317;47.936;12.742;2023-06-24T05:03:52;13.80;62.00
36280;DHT22;22317;47.936;12.742;2023-06-24T05:06:18;13.80;61.90
36280;DHT22;22317;47.936;12.742;2023-06-24T05:08:44;13.80;62.00
36280;DHT22;22317;47.936;12.742;2023-06-24T05:11:09;13.80;62.10
36280;DHT22;22317;47.936;12.742;2023-06-24T05:13:35;13.80;62.00
36280;DHT22;22317;47.936;12.742;2023-06-24T05:16:01;13.80;61.90
36280;DHT22;22317;47.936;12.742;2023-06-24T05:18:26;13.80;61.80
36280;DHT22;22317;47.936;12.742;2023-06-24T05:20:52;13.90;61.70
36280;DHT22;22317;47.936;12.742;2023-06-24T05:23:18;13.80;61.70
36280;DHT22;22317;47.936;12.742;2023-06-24T05:25:44;13.80;61.60
36280;DHT22;22317;47.936;12.742;2023-06-24T05:28:09;13.80;61.50
36280;DHT22;22317;47.936;12.742;2023-06-24T05:30:35;13.90;61.50
36280;DHT22;22317;47.936;12.742;2023-06-24T05:33:01;13.90;61.50
36280;DHT22;22317;47.936;12.742;2023-06-24T05:35:27;13.90;61.50
36280;DHT22;22317;47.936;12.742;2023-06-24T05:37:52;13.90;61.60
36280;DHT22;22317;47.936;12.742;2023-06-24T05:40:18;13.90;61.70
36280;DHT22;22317;47.936;12.742;2023-06-24T05:42:44;14.00;61.60
36280;DHT22;22317;47.936;12.742;2023-06-24T05:45:10;14.00;61.50
36280;DHT22;22317;47.936;12.742;2023-06-24T05:47:37;14.00;61.50
36280;DHT22;22317;47.936;12.742;2023-06-24T05:50:04;14.10;61.50
36280;DHT22;22317;47.936;12.742;2023-06-24T05:52:30;14.10;61.20
36280;DHT22;22317;47.936;12.742;2023-06-24T05:54:56;14.10;61.20
36280;DHT22;22317;47.936;12.742;2023-06-24T05:57:22;14.20;61.10
36280;DHT22;22317;47.936;12.742;2023-06-24T05:59:48;14.30;61.00
36280;DHT22;22317;47.936;12.742;2023-06-24T06:02:14;14.30;60.80
36280;DHT22;22317;47.936;12.742;2023-06-24T06:04:39;14.30;60.50
36280;DHT22;22317;47.936;12.742;2023-06-24T06:07:05;14.40;60.30
36280;DHT22;22317;47.936;12.742;2023-06-24T06:09:31;14.40;60.10
36280;DHT22;22317;47.936;12.742;2023-06-24T06:11:57;14.40;60.00
36280;DHT22;22317;47.936;12.742;2023-06-24T06:14:23;14.40;60.00
36280;DHT22;22317;47.936;12.742;2023-06-24T06:16:57;14.50;59.90
36280;DHT22;22317;47.936;12.742;2023-06-24T06:19:22;14.60;59.70
36280;DHT22;22317;47.936;12.742;2023-06-24T06:21:49;14.70;59.60
36280;DHT22;22317;47.936;12.742;2023-06-24T06:24:15;14.70;59.30
36280;DHT22;22317;47.936;12.742;2023-06-24T06:26:44;14.70;59.00
36280;DHT22;22317;47.936;12.742;2023-06-24T06:29:11;14.70;59.00
36280;DHT22;22317;47.936;12.742;2023-06-24T06:31:37;14.80;59.10
36280;DHT22;22317;47.936;12.742;2023-06-24T06:34:03;14.90;59.20
36280;DHT22;22317;47.936;12.742;2023-06-24T06:36:29;15.00;59.20
36280;DHT22;22317;47.936;12.742;2023-06-24T06:38:55;15.00;58.90
36280;DHT22;22317;47.936;12.742;2023-06-24T06:41:20;15.10;58.60
36280;DHT22;22317;47.936;12.742;2023-06-24T06:43:51;15.10;58.60
36280;DHT22;22317;47.936;12.742;2023-06-24T06:46:16;15.20;58.70
36280;DHT22;22317;47.936;12.742;2023-06-24T06:48:42;15.20;58.70
36280;DHT22;22317;47.936;12.742;2023-06-24T06:51:08;15.30;58.80
36280;DHT22;22317;47.936;12.742;2023-06-24T06:53:34;15.40;58.60
36280;DHT22;22317;47.936;12.742;2023-06-24T06:55:59;15.50;58.50
36280;DHT22;22317;47.936;12.742;2023-06-24T06:58:25;15.60;58.30
36280;DHT22;22317;47.936;12.742;2023-06-24T07:00:51;15.70;58.20
36280;DHT22;22317;47.936;12.742;2023-06-24T07:03:17;15.80;58.10
36280;DHT22;22317;47.936;12.742;2023-06-24T07:05:42;15.90;57.90
36280;DHT22;22317;47.936;12.742;2023-06-24T07:08:08;15.90;57.70
36280;DHT22;22317;47.936;12.742;2023-06-24T07:10:34;16.00;57.40
36280;DHT22;22317;47.936;12.742;2023-06-24T07:13:00;16.10;57.00
36280;DHT22;22317;47.936;12.742;2023-06-24T07:15:26;16.10;56.90
36280;DHT22;22317;47.936;12.742;2023-06-24T07:17:53;16.20;56.80
36280;DHT22;22317;47.936;12.742;2023-06-24T07:20:19;16.30;56.70
36280;DHT22;22317;47.936;12.742;2023-06-24T07:22:45;16.40;56.70
36280;DHT22;22317;47.936;12.742;2023-06-24T07:25:11;16.50;56.40
36280;DHT22;22317;47.936;12.742;2023-06-24T07:27:37;16.60;56.30
36280;DHT22;22317;47.936;12.742;2023-06-24T07:30:05;16.60;55.90
36280;DHT22;22317;47.936;12.742;2023-06-24T07:32:30;16.70;55.50
36280;DHT22;22317;47.936;12.742;2023-06-24T07:34:56;16.70;55.20
36280;DHT22;22317;47.936;12.742;2023-06-24T07:37:22;16.80;55.10
36280;DHT22;22317;47.936;12.742;2023-06-24T07:39:48;16.80;55.00
36280;DHT22;22317;47.936;12.742;2023-06-24T07:42:14;16.80;54.60
36280;DHT22;22317;47.936;12.742;2023-06-24T07:44:47;16.90;54.50
36280;DHT22;22317;47.936;12.742;2023-06-24T07:47:13;16.90;54.50
36280;DHT22;22317;47.936;12.742;2023-06-24T07:49:39;17.00;54.60
36280;DHT22;22317;47.936;12.742;2023-06-24T07:52:05;17.00;55.30
36280;DHT22;22317;47.936;12.742;2023-06-24T07:54:32;17.10;54.70
36280;DHT22;22317;47.936;12.742;2023-06-24T07:56:57;17.10;54.70
36280;DHT22;22317;47.936;12.742;2023-06-24T07:59:23;17.20;54.80
36280;DHT22;22317;47.936;12.742;2023-06-24T08:01:50;17.20;54.90
36280;DHT22;22317;47.936;12.742;2023-06-24T08:04:16;17.30;55.00
36280;DHT22;22317;47.936;12.742;2023-06-24T08:06:41;17.40;54.90
36280;DHT22;22317;47.936;12.742;2023-06-24T08:09:07;17.50;54.80
36280;DHT22;22317;47.936;12.742;2023-06-24T08:11:33;17.50;54.70
36280;DHT22;22317;47.936;12.742;2023-06-24T08:13:59;17.60;54.70
36280;DHT22;22317;47.936;12.742;2023-06-24T08:16:25;17.70;54.60
36280;DHT22;22317;47.936;12.742;2023-06-24T08:18:51;17.70;54.40
36280;DHT22;22317;47.936;12.742;2023-06-24T08:21:17;17.90;54.10
36280;DHT22;22317;47.936;12.742;2023-06-24T08:23:42;17.90;53.80
36280;DHT22;22317;47.936;12.742;2023-06-24T08:26:08;18.00;53.90
36280;DHT22;22317;47.936;12.742;2023-06-24T08:28:34;18.20;54.10
36280;DHT22;22317;47.936;12.742;2023-06-24T08:31:00;18.30;54.00
36280;DHT22;22317;47.936;12.742;2023-06-24T08:33:26;18.50;53.90
36280;DHT22;22317;47.936;12.742;2023-06-24T08:35:52;18.70;53.80
36280;DHT22;22317;47.936;12.742;2023-06-24T08:38:17;18.90;53.30
36280;DHT22;22317;47.936;12.742;2023-06-24T08:40:44;19.00;52.80
36280;DHT22;22317;47.936;12.742;2023-06-24T08:43:11;19.20;52.30
36280;DHT22;22317;47.936;12.742;2023-06-24T08:45:38;19.40;52.00
36280;DHT22;22317;47.936;12.742;2023-06-24T08:48:04;19.50;51.70
36280;DHT22;22317;47.936;12.742;2023-06-24T08:50:37;19.70;51.40
36280;DHT22;22317;47.936;12.742;2023-06-24T08:53:07;19.80;50.60
36280;DHT22;22317;47.936;12.742;2023-06-24T08:55:40;19.90;50.30
36280;DHT22;22317;47.936;12.742;2023-06-24T08:58:08;20.00;49.80
36280;DHT22;22317;47.936;12.742;2023-06-24T09:00:34;20.00;49.40
36280;DHT22;22317;47.936;12.742;2023-06-24T09:03:00;20.00;49.20
36280;DHT22;22317;47.936;12.742;2023-06-24T09:05:26;20.10;48.90
36280;DHT22;22317;47.936;12.742;2023-06-24T09:07:52;20.30;48.90
36280;DHT22;22317;47.936;12.742;2023-06-24T09:10:34;20.30;48.40
36280;DHT22;22317;47.936;12.742;2023-06-24T09:13:04;20.40;46.30
36280;DHT22;22317;47.936;12.742;2023-06-24T09:15:38;20.40;45.60
36280;DHT22;22317;47.936;12.742;2023-06-24T09:18:04;20.30;44.80
36280;DHT22;22317;47.936;12.742;2023-06-24T09:20:32;20.20;44.40
36280;DHT22;22317;47.936;12.742;2023-06-24T09:22:59;20.20;44.20
36280;DHT22;22317;47.936;12.742;2023-06-24T09:25:25;20.10;44.30
36280;DHT22;22317;47.936;12.742;2023-06-24T09:27:51;20.10;44.00
36280;DHT22;22317;47.936;12.742;2023-06-24T09:30:19;20.20;43.60
36280;DHT22;22317;47.936;12.742;2023-06-24T09:32:47;20.20;43.30
36280;DHT22;22317;47.936;12.742;2023-06-24T09:35:14;20.20;42.90
36280;DHT22;22317;47.936;12.742;2023-06-24T09:37:39;20.20;42.80
36280;DHT22;22317;47.936;12.742;2023-06-24T09:40:06;20.10;42.80
36280;DHT22;22317;47.936;12.742;2023-06-24T09:42:34;20.20;42.80
36280;DHT22;22317;47.936;12.742;2023-06-24T09:45:05;20.20;42.60
36280;DHT22;22317;47.936;12.742;2023-06-24T09:47:31;20.40;42.60
36280;DHT22;22317;47.936;12.742;2023-06-24T09:49:57;20.50;42.60
36280;DHT22;22317;47.936;12.742;2023-06-24T09:52:23;20.70;42.40
36280;DHT22;22317;47.936;12.742;2023-06-24T09:54:53;21.00;43.10
36280;DHT22;22317;47.936;12.742;2023-06-24T09:57:25;21.20;41.70
36280;DHT22;22317;47.936;12.742;2023-06-24T09:59:52;21.30;41.00
36280;DHT22;22317;47.936;12.742;2023-06-24T10:02:18;21.30;41.10
36280;DHT22;22317;47.936;12.742;2023-06-24T10:04:45;21.40;40.80
36280;DHT22;22317;47.936;12.742;2023-06-24T10:07:13;21.60;40.30
36280;DHT22;22317;47.936;12.742;2023-06-24T10:09:40;21.80;40.10
36280;DHT22;22317;47.936;12.742;2023-06-24T10:12:06;21.90;39.40
36280;DHT22;22317;47.936;12.742;2023-06-24T10:14:32;22.00;38.90
36280;DHT22;22317;47.936;12.742;2023-06-24T10:17:03;22.10;38.70
36280;DHT22;22317;47.936;12.742;2023-06-24T10:19:29;22.10;38.50
36280;DHT22;22317;47.936;12.742;2023-06-24T10:21:58;22.10;38.70
36280;DHT22;22317;47.936;12.742;2023-06-24T10:24:35;22.10;38.10
36280;DHT22;22317;47.936;12.742;2023-06-24T10:29:37;21.90;37.60
36280;DHT22;22317;47.936;12.742;2023-06-24T10:32:08;21.70;37.30
36280;DHT22;22317;47.936;12.742;2023-06-24T10:37:19;21.50;37.80
36280;DHT22;22317;47.936;12.742;2023-06-24T10:39:51;21.40;37.80
36280;DHT22;22317;47.936;12.742;2023-06-24T10:42:27;21.30;38.10
36280;DHT22;22317;47.936;12.742;2023-06-24T10:44:55;21.30;37.90
36280;DHT22;22317;47.936;12.742;2023-06-24T10:47:22;21.20;37.70
36280;DHT22;22317;47.936;12.742;2023-06-24T10:49:48;21.20;37.70
36280;DHT22;22317;47.936;12.742;2023-06-24T10:52:14;21.30;38.00
36280;DHT22;22317;47.936;12.742;2023-06-24T10:54:43;21.40;38.00
36280;DHT22;22317;47.936;12.742;2023-06-24T10:57:11;21.50;37.60
36280;DHT22;22317;47.936;12.742;2023-06-24T10:59:47;21.60;37.20
36280;DHT22;22317;47.936;12.742;2023-06-24T11:02:15;21.80;37.20
36280;DHT22;22317;47.936;12.742;2023-06-24T11:04:52;21.90;37.00
36280;DHT22;22317;47.936;12.742;2023-06-24T11:07:20;22.10;36.20
36280;DHT22;22317;47.936;12.742;2023-06-24T11:09:53;22.30;36.60
36280;DHT22;22317;47.936;12.742;2023-06-24T11:12:24;22.40;36.10
36280;DHT22;22317;47.936;12.742;2023-06-24T11:14:50;22.70;36.20
36280;DHT22;22317;47.936;12.742;2023-06-24T11:17:16;22.90;36.10
36280;DHT22;22317;47.936;12.742;2023-06-24T11:19:41;23.10;35.60
36280;DHT22;22317;47.936;12.742;2023-06-24T11:22:09;23.30;35.10
36280;DHT22;22317;47.936;12.742;2023-06-24T11:24:36;23.50;34.40
36280;DHT22;22317;47.936;12.742;2023-06-24T11:27:03;23.50;34.00
36280;DHT22;22317;47.936;12.742;2023-06-24T11:29:29;23.70;34.10
36280;DHT22;22317;47.936;12.742;2023-06-24T11:31:55;23.80;33.90
36280;DHT22;22317;47.936;12.742;2023-06-24T11:34:21;23.90;33.60
36280;DHT22;22317;47.936;12.742;2023-06-24T11:36:48;24.10;33.80
36280;DHT22;22317;47.936;12.742;2023-06-24T11:39:25;24.30;33.60
36280;DHT22;22317;47.936;12.742;2023-06-24T11:41:52;24.40;33.00
36280;DHT22;22317;47.936;12.742;2023-06-24T11:44:19;24.60;33.00
36280;DHT22;22317;47.936;12.742;2023-06-24T11:46:45;24.70;32.60
36280;DHT22;22317;47.936;12.742;2023-06-24T11:49:11;24.80;32.40
36280;DHT22;22317;47.936;12.742;2023-06-24T11:51:46;25.00;32.40
36280;DHT22;22317;47.936;12.742;2023-06-24T11:54:15;25.10;32.20
36280;DHT22;22317;47.936;12.742;2023-06-24T11:56:42;25.20;32.10
36280;DHT22;22317;47.936;12.742;2023-06-24T11:59:26;25.20;31.50
36280;DHT22;22317;47.936;12.742;2023-06-24T12:01:58;25.10;30.60
36280;DHT22;22317;47.936;12.742;2023-06-24T12:04:29;24.90;30.50
36280;DHT22;22317;47.936;12.742;2023-06-24T12:06:56;24.80;30.50
36280;DHT22;22317;47.936;12.742;2023-06-24T12:09:22;24.80;31.00
36280;DHT22;22317;47.936;12.742;2023-06-24T12:11:48;24.80;31.60
36280;DHT22;22317;47.936;12.742;2023-06-24T12:14:14;24.80;31.20
36280;DHT22;22317;47.936;12.742;2023-06-24T12:16:40;24.80;31.40
36280;DHT22;22317;47.936;12.742;2023-06-24T12:19:07;25.00;31.80
36280;DHT22;22317;47.936;12.742;2023-06-24T12:21:33;25.10;31.70
36280;DHT22;22317;47.936;12.742;2023-06-24T12:23:59;25.20;31.40
36280;DHT22;22317;47.936;12.742;2023-06-24T12:26:25;25.20;31.20
36280;DHT22;22317;47.936;12.742;2023-06-24T12:28:53;25.30;31.00
36280;DHT22;22317;47.936;12.742;2023-06-24T12:31:19;25.10;31.00
36280;DHT22;22317;47.936;12.742;2023-06-24T12:33:45;25.00;30.00
36280;DHT22;22317;47.936;12.742;2023-06-24T12:36:10;24.80;30.00
36280;DHT22;22317;47.936;12.742;2023-06-24T12:38:36;24.70;30.10
36280;DHT22;22317;47.936;12.742;2023-06-24T12:41:02;24.70;30.20
36280;DHT22;22317;47.936;12.742;2023-06-24T12:43:27;24.70;30.50
36280;DHT22;22317;47.936;12.742;2023-06-24T12:45:53;24.70;30.00
36280;DHT22;22317;47.936;12.742;2023-06-24T12:48:19;24.70;30.10
36280;DHT22;22317;47.936;12.742;2023-06-24T12:50:44;24.90;30.70
36280;DHT22;22317;47.936;12.742;2023-06-24T12:53:10;25.10;31.10
36280;DHT22;22317;47.936;12.742;2023-06-24T12:55:38;25.40;31.40
36280;DHT22;22317;47.936;12.742;2023-06-24T12:58:04;25.60;30.90
36280;DHT22;22317;47.936;12.742;2023-06-24T13:00:30;25.70;30.30
36280;DHT22;22317;47.936;12.742;2023-06-24T13:02:55;25.90;30.20
36280;DHT22;22317;47.936;12.742;2023-06-24T13:05:21;25.90;30.00
36280;DHT22;22317;47.936;12.742;2023-06-24T13:07:47;25.90;30.20
36280;DHT22;22317;47.936;12.742;2023-06-24T13:10:13;25.90;30.50
36280;DHT22;22317;47.936;12.742;2023-06-24T13:12:38;25.90;30.40
36280;DHT22;22317;47.936;12.742;2023-06-24T13:15:06;25.80;30.40
36280;DHT22;22317;47.936;12.742;2023-06-24T13:17:32;25.90;30.60
36280;DHT22;22317;47.936;12.742;2023-06-24T13:19:58;25.90;30.90
36280;DHT22;22317;47.936;12.742;2023-06-24T13:22:24;26.00;31.00
36280;DHT22;22317;47.936;12.742;2023-06-24T13:24:50;26.10;31.10
36280;DHT22;22317;47.936;12.742;2023-06-24T13:27:16;26.10;30.70
36280;DHT22;22317;47.936;12.742;2023-06-24T13:29:42;26.30;30.70
36280;DHT22;22317;47.936;12.742;2023-06-24T13:32:08;26.30;30.50
36280;DHT22;22317;47.936;12.742;2023-06-24T13:34:34;26.40;30.40
36280;DHT22;22317;47.936;12.742;2023-06-24T13:37:00;26.50;30.10
36280;DHT22;22317;47.936;12.742;2023-06-24T13:39:26;26.50;29.90
36280;DHT22;22317;47.936;12.742;2023-06-24T13:41:53;26.50;29.90
36280;DHT22;22317;47.936;12.742;2023-06-24T13:44:19;26.50;30.00
36280;DHT22;22317;47.936;12.742;2023-06-24T13:46:45;26.70;30.00
36280;DHT22;22317;47.936;12.742;2023-06-24T13:49:11;26.90;29.90
36280;DHT22;22317;47.936;12.742;2023-06-24T13:51:37;27.10;30.00
36280;DHT22;22317;47.936;12.742;2023-06-24T13:54:03;27.30;29.80
36280;DHT22;22317;47.936;12.742;2023-06-24T13:56:28;27.40;29.60
36280;DHT22;22317;47.936;12.742;2023-06-24T13:58:55;27.50;29.20
36280;DHT22;22317;47.936;12.742;2023-06-24T14:01:22;27.50;29.20
36280;DHT22;22317;47.936;12.742;2023-06-24T14:03:47;27.40;29.20
36280;DHT22;22317;47.936;12.742;2023-06-24T14:06:17;27.30;29.00
36280;DHT22;22317;47.936;12.742;2023-06-24T14:08:44;27.20;29.00
36280;DHT22;22317;47.936;12.742;2023-06-24T14:11:11;27.10;29.30
36280;DHT22;22317;47.936;12.742;2023-06-24T14:13:36;27.20;29.40
36280;DHT22;22317;47.936;12.742;2023-06-24T14:16:03;27.20;29.40
36280;DHT22;22317;47.936;12.742;2023-06-24T14:18:29;27.20;29.30
36280;DHT22;22317;47.936;12.742;2023-06-24T14:21:04;27.20;29.10
36280;DHT22;22317;47.936;12.742;2023-06-24T14:23:30;27.30;29.00
36280;DHT22;22317;47.936;12.742;2023-06-24T14:25:57;27.40;29.00
36280;DHT22;22317;47.936;12.742;2023-06-24T14:28:23;27.40;28.60
36280;DHT22;22317;47.936;12.742;2023-06-24T14:30:49;27.30;28.50
36280;DHT22;22317;47.936;12.742;2023-06-24T14:33:15;27.10;28.40
36280;DHT22;22317;47.936;12.742;2023-06-24T14:35:41;27.10;28.50
36280;DHT22;22317;47.936;12.742;2023-06-24T14:38:07;27.10;28.60
36280;DHT22;22317;47.936;12.742;2023-06-24T14:40:33;27.10;29.20
36280;DHT22;22317;47.936;12.742;2023-06-24T14:42:59;27.20;28.90
36280;DHT22;22317;47.936;12.742;2023-06-24T14:45:25;27.30;28.90
36280;DHT22;22317;47.936;12.742;2023-06-24T14:47:52;27.30;28.50
36280;DHT22;22317;47.936;12.742;2023-06-24T14:50:17;27.30;28.50
36280;DHT22;22317;47.936;12.742;2023-06-24T14:52:43;27.30;28.40
36280;DHT22;22317;47.936;12.742;2023-06-24T14:55:09;27.30;28.60
36280;DHT22;22317;47.936;12.742;2023-06-24T14:57:35;27.30;28.80
36280;DHT22;22317;47.936;12.742;2023-06-24T15:00:02;27.40;29.00
36280;DHT22;22317;47.936;12.742;2023-06-24T15:02:28;27.50;29.10
36280;DHT22;22317;47.936;12.742;2023-06-24T15:04:53;27.50;29.00
36280;DHT22;22317;47.936;12.742;2023-06-24T15:07:19;27.50;28.90
36280;DHT22;22317;47.936;12.742;2023-06-24T15:09:45;27.50;28.80
36280;DHT22;22317;47.936;12.742;2023-06-24T15:12:10;27.50;28.60
36280;DHT22;22317;47.936;12.742;2023-06-24T15:14:36;27.30;28.40
36280;DHT22;22317;47.936;12.742;2023-06-24T15:17:03;27.30;28.50
36280;DHT22;22317;47.936;12.742;2023-06-24T15:19:29;27.40;28.40
36280;DHT22;22317;47.936;12.742;2023-06-24T15:21:55;27.40;28.30
36280;DHT22;22317;47.936;12.742;2023-06-24T15:24:21;27.50;28.40
36280;DHT22;22317;47.936;12.742;2023-06-24T15:26:46;27.50;28.30
36280;DHT22;22317;47.936;12.742;2023-06-24T15:29:12;27.60;27.90
36280;DHT22;22317;47.936;12.742;2023-06-24T15:31:38;27.60;28.00
36280;DHT22;22317;47.936;12.742;2023-06-24T15:34:04;27.60;28.20
36280;DHT22;22317;47.936;12.742;2023-06-24T15:36:29;27.70;28.20
36280;DHT22;22317;47.936;12.742;2023-06-24T15:38:56;27.80;28.10